Flight Track Log - Related Links

Times and Time Zones

All times are in EDT time to prevent confusion due to time zone crossing. See the GEC8170 flight status page for this flight to view local times or setup timezone preferences in your user account.

Time Position Orientation Groundspeed Altitude Reporting Facility
EDT Latitude Longitude Course Direction KTS MPH feet Rate Location/Type
Sun 06:50:00 PM 54.2725 -16.9980 295° West  Level Estimated
Sun 06:51:00 PM 54.2832 -17.2238 275° West  Level Estimated
Sun 06:52:00 PM 54.2936 -17.4497 275° West  Level Estimated
Sun 06:53:00 PM 54.3035 -17.6758 274° West  Level Estimated
Sun 06:54:00 PM 54.3130 -17.9019 274° West  Level Estimated
Sun 06:55:00 PM 54.3221 -18.1281 274° West  Level Estimated
Sun 06:56:00 PM 54.3307 -18.3545 274° West  Level Estimated
Sun 06:57:00 PM 54.3390 -18.5809 274° West  Level Estimated
Sun 06:58:00 PM 54.3468 -18.8074 273° West  Level Estimated
Sun 06:59:00 PM 54.3542 -19.0340 273° West  Level Estimated
Sun 07:00:00 PM 54.3611 -19.2607 273° West  Level Estimated
Sun 07:01:00 PM 54.3677 -19.4875 273° West  Level Estimated
Sun 07:02:00 PM 54.3738 -19.7143 273° West  Level Estimated
Sun 07:03:00 PM 54.3795 -19.9412 273° West  Level Estimated
Sun 07:04:00 PM 54.3847 -20.1682 272° West  Level Estimated
Sun 07:05:00 PM 54.3895 -20.3952 272° West  Level Estimated
Sun 07:06:00 PM 54.3940 -20.6222 272° West  Level Estimated
Sun 07:06:56 PM 51.0000 -20.0000 274° West 481 554 32,000  Level ETMS Enhanced
Sun 07:07:00 PM 54.3979 -20.8493 272° West  Level Estimated
Sun 07:08:00 PM 54.4015 -21.0765 272° West  Level Estimated
Sun 07:09:00 PM 54.4046 -21.3037 271° West  Level Estimated
Sun 07:10:00 PM 54.4073 -21.5309 271° West  Level Estimated
Sun 07:11:00 PM 54.4096 -21.7582 271° West  Level Estimated
Sun 07:12:00 PM 54.4114 -21.9854 271° West  Level Estimated
Sun 07:13:00 PM 51.0541 -21.4866 273° West 481 554 32,000  Level FlightAware
Sun 07:14:00 PM 51.0603 -21.6993 273° West 481 554 32,000  Level FlightAware
Sun 07:15:00 PM 51.0661 -21.9120 272° West 481 554 32,000  Level FlightAware
Sun 07:16:00 PM 51.0715 -22.1247 272° West 481 554 32,000  Level FlightAware
Sun 07:17:00 PM 51.0765 -22.3375 272° West 481 554 32,000  Level FlightAware
Sun 07:18:00 PM 51.0812 -22.5503 272° West 481 554 32,000  Level FlightAware
Sun 07:19:00 PM 51.0854 -22.7632 272° West 481 554 32,000  Level FlightAware
Sun 07:20:00 PM 51.0893 -22.9761 272° West 481 554 32,000  Level FlightAware
Sun 07:21:00 PM 51.0928 -23.1891 271° West 481 554 32,000  Level FlightAware
Sun 07:22:00 PM 51.0959 -23.4021 271° West 481 554 32,000  Level FlightAware
Sun 07:23:00 PM 51.0986 -23.6151 271° West 481 554 32,000  Level FlightAware
Sun 07:24:00 PM 51.1009 -23.8281 271° West 481 554 32,000  Level FlightAware
Sun 07:25:00 PM 51.1029 -24.0411 271° West 481 554 32,000  Level FlightAware
Sun 07:26:00 PM 51.1044 -24.2542 271° West 481 554 32,000  Level FlightAware
Sun 07:27:00 PM 51.1056 -24.4673 270° West 481 554 32,000  Level FlightAware
Sun 07:28:00 PM 51.1064 -24.6804 270° West 481 554 32,000  Level FlightAware
Sun 07:29:00 PM 51.1067 -24.8934 270° West 481 554 32,000  Level FlightAware
Sun 07:30:00 PM 51.1067 -25.1066 270° West 481 554 32,000  Level FlightAware
Sun 07:31:00 PM 51.1064 -25.3196 270° West 481 554 32,000  Level FlightAware
Sun 07:32:00 PM 51.1056 -25.5327 270° West 481 554 32,000  Level FlightAware
Sun 07:33:00 PM 51.1044 -25.7458 269° West 481 554 32,000  Level FlightAware
Sun 07:34:00 PM 51.1029 -25.9589 269° West 481 554 32,000  Level FlightAware
Sun 07:35:00 PM 51.1009 -26.1719 269° West 481 554 32,000  Level FlightAware
Sun 07:36:00 PM 51.0986 -26.3849 269° West 481 554 32,000  Level FlightAware
Sun 07:37:00 PM 51.0959 -26.5979 269° West 481 554 32,000  Level FlightAware
Sun 07:38:00 PM 51.0928 -26.8109 269° West 481 554 32,000  Level FlightAware
Sun 07:39:00 PM 51.0893 -27.0239 268° West 481 554 32,000  Level FlightAware
Sun 07:40:00 PM 51.0854 -27.2368 268° West 481 554 32,000  Level FlightAware
Sun 07:41:00 PM 51.0812 -27.4497 268° West 481 554 32,000  Level FlightAware
Sun 07:42:00 PM 51.0765 -27.6625 268° West 481 554 32,000  Level FlightAware
Sun 07:43:00 PM 51.0715 -27.8753 268° West 481 554 32,000  Level FlightAware
Sun 07:44:00 PM 51.0661 -28.0880 268° West 481 554 32,000  Level FlightAware
Sun 07:45:00 PM 51.0603 -28.3007 267° West 481 554 32,000  Level FlightAware
Sun 07:46:00 PM 51.0541 -28.5134 267° West 481 554 32,000  Level FlightAware
Sun 07:47:00 PM 51.0475 -28.7260 267° West 481 554 32,000  Level FlightAware
Sun 07:48:00 PM 51.0406 -28.9385 267° West 481 554 32,000  Level FlightAware
Sun 07:49:00 PM 51.0332 -29.1509 267° West 481 554 32,000  Level FlightAware
Sun 07:50:00 PM 51.0255 -29.3633 267° West 481 554 32,000  Level FlightAware
Sun 07:51:00 PM 51.0174 -29.5756 266° West 481 554 32,000  Level FlightAware
Sun 07:52:00 PM 51.0089 -29.7878 266° West 481 554 32,000 Level FlightAware
Sun 07:53:00 PM 51.0001 -29.9976 266° West  Level FlightAware
Sun 07:54:00 PM 50.9912 -30.2073 266° West  Level FlightAware
Sun 07:55:00 PM 51.0086 -30.2049 274° West  Level FlightAware
Sun 07:56:00 PM 51.0170 -30.4147 274° West  Level FlightAware
Sun 07:57:00 PM 51.0251 -30.6246 274° West  Level FlightAware
Sun 07:58:00 PM 51.0327 -30.8346 273° West  Level FlightAware
Sun 07:59:00 PM 51.0400 -31.0447 273° West  Level FlightAware
Sun 08:00:00 PM 51.0469 -31.2548 273° West  Level FlightAware
Sun 08:01:00 PM 51.0535 -31.4649 273° West  Level FlightAware
Sun 08:02:00 PM 51.0596 -31.6751 273° West  Level FlightAware
Sun 08:03:00 PM 51.0654 -31.8854 273° West  Level FlightAware
Sun 08:04:00 PM 51.0708 -32.0957 272° West  Level FlightAware
Sun 08:05:00 PM 51.0758 -32.3061 272° West  Level FlightAware
Sun 08:06:00 PM 51.0805 -32.5165 272° West  Level FlightAware
Sun 08:07:00 PM 51.0848 -32.7270 272° West  Level FlightAware
Sun 08:08:00 PM 51.0886 -32.9375 272° West  Level FlightAware
Sun 08:09:00 PM 51.0922 -33.1480 272° West  Level FlightAware
Sun 08:10:00 PM 51.0953 -33.3586 271° West  Level FlightAware
Sun 08:11:00 PM 51.0981 -33.5692 271° West  Level FlightAware
Sun 08:12:00 PM 51.1004 -33.7798 271° West  Level FlightAware
Sun 08:13:00 PM 51.1025 -33.9904 271° West  Level FlightAware
Sun 08:14:00 PM 51.1041 -34.2010 271° West  Level FlightAware
Sun 08:15:00 PM 51.1053 -34.4117 271° West  Level FlightAware
Sun 08:16:00 PM 51.1062 -34.6224 270° West  Level FlightAware
Sun 08:17:00 PM 51.1067 -34.8330 270° West  Level FlightAware
Sun 08:18:00 PM 51.1068 -35.0437 270° West  Level FlightAware
Sun 08:19:00 PM 51.1065 -35.2544 270° West  Level FlightAware
Sun 08:20:00 PM 51.1059 -35.4651 270° West  Level FlightAware
Sun 08:21:00 PM 51.1049 -35.6757 270° West  Level FlightAware
Sun 08:22:00 PM 51.1035 -35.8864 269° West  Level FlightAware
Sun 08:23:00 PM 51.1017 -36.0970 269° West  Level FlightAware
Sun 08:24:00 PM 51.0995 -36.3077 269° West  Level FlightAware
Sun 08:25:00 PM 51.0970 -36.5182 269° West  Level FlightAware
Sun 08:26:00 PM 51.0941 -36.7288 269° West  Level FlightAware
Sun 08:27:00 PM 51.0908 -36.9394 269° West  Level FlightAware
Sun 08:28:00 PM 51.0871 -37.1499 268° West  Level FlightAware
Sun 08:29:00 PM 51.0830 -37.3604 268° West  Level FlightAware
Sun 08:30:00 PM 51.0786 -37.5708 268° West  Level FlightAware
Sun 08:31:00 PM 51.0738 -37.7812 268° West  Level FlightAware
Sun 08:32:00 PM 51.0686 -37.9916 268° West  Level FlightAware
Sun 08:33:00 PM 51.0630 -38.2019 268° West  Level FlightAware
Sun 08:34:00 PM 51.0571 -38.4121 268° West  Level FlightAware
Sun 08:35:00 PM 51.0508 -38.6223 267° West  Level FlightAware
Sun 08:36:00 PM 51.0441 -38.8324 267° West  Level FlightAware
Sun 08:37:00 PM 51.0370 -39.0425 267° West  Level FlightAware
Sun 08:38:00 PM 51.0296 -39.2525 267° West  Level FlightAware
Sun 08:39:00 PM 51.0218 -39.4625 267° West  Level FlightAware
Sun 08:40:00 PM 51.0136 -39.6723 267° West  Level FlightAware
Sun 08:41:00 PM 51.0050 -39.8821 266° West  Level FlightAware
Sun 08:42:00 PM 50.9865 -40.0895 257° West  Level FlightAware
Sun 08:43:00 PM 50.9554 -40.2937 256° West  Level FlightAware
Sun 08:44:00 PM 50.9240 -40.4976 256° West  Level FlightAware
Sun 08:45:00 PM 50.8922 -40.7012 256° West  Level FlightAware
Sun 08:46:00 PM 50.8601 -40.9046 256° West  Level FlightAware
Sun 08:47:00 PM 50.8276 -41.1077 256° West  Level FlightAware
Sun 08:48:00 PM 50.7947 -41.3104 256° West  Level FlightAware
Sun 08:49:00 PM 50.7615 -41.5129 256° West  Level FlightAware
Sun 08:50:00 PM 50.7280 -41.7151 255° West  Level FlightAware
Sun 08:51:00 PM 50.6941 -41.9171 255° West  Level FlightAware
Sun 08:52:00 PM 50.6598 -42.1187 255° West  Level FlightAware
Sun 08:53:00 PM 50.6252 -42.3200 255° West  Level FlightAware
Sun 08:54:00 PM 50.5903 -42.5210 255° West  Level FlightAware
Sun 08:55:00 PM 50.5550 -42.7218 255° West  Level FlightAware
Sun 08:56:00 PM 50.5194 -42.9222 254° West  Level FlightAware
Sun 08:57:00 PM 50.4834 -43.1223 254° West  Level FlightAware
Sun 08:58:00 PM 50.4471 -43.3222 254° West  Level FlightAware
Sun 08:59:00 PM 50.4104 -43.5217 254° West  Level FlightAware
Sun 09:00:00 PM 50.3734 -43.7209 254° West  Level FlightAware
Sun 09:01:00 PM 50.3361 -43.9198 254° West  Level FlightAware
Sun 09:02:00 PM 50.2984 -44.1183 254° West  Level FlightAware
Sun 09:03:00 PM 50.2604 -44.3166 253° West  Level FlightAware
Sun 09:04:00 PM 50.2220 -44.5145 253° West  Level FlightAware
Sun 09:05:00 PM 50.1833 -44.7122 253° West  Level FlightAware
Sun 09:06:00 PM 50.1443 -44.9095 253° West  Level FlightAware
Sun 09:07:00 PM 50.1050 -45.1064 253° West  Level FlightAware
Sun 09:08:00 PM 50.0653 -45.3031 253° West  Level FlightAware
Sun 09:09:00 PM 50.0253 -45.4994 252° West  Level FlightAware
Sun 09:10:00 PM 49.9849 -45.6954 252° West  Level FlightAware
Sun 09:11:00 PM 49.9442 -45.8911 252° West  Level FlightAware
Sun 09:12:00 PM 49.9032 -46.0864 252° West  Level FlightAware
Sun 09:13:00 PM 49.8619 -46.2814 252° West  Level FlightAware
Sun 09:14:00 PM 49.8202 -46.4761 252° West  Level FlightAware
Sun 09:15:00 PM 49.7782 -46.6704 252° West  Level FlightAware
Sun 09:16:00 PM 49.7359 -46.8644 251° West  Level FlightAware
Sun 09:17:00 PM 49.6933 -47.0581 251° West  Level FlightAware
Sun 09:18:00 PM 49.6503 -47.2514 251° West  Level FlightAware
Sun 09:19:00 PM 49.6070 -47.4444 251° West  Level FlightAware
Sun 09:20:00 PM 49.5634 -47.6370 251° West  Level FlightAware
Sun 09:21:00 PM 49.5195 -47.8293 251° West  Level FlightAware
Sun 09:22:00 PM 49.4753 -48.0213 251° West  Level FlightAware
Sun 09:23:00 PM 49.4307 -48.2129 250° West  Level FlightAware
Sun 09:24:00 PM 49.3859 -48.4041 250° West  Level FlightAware
Sun 09:25:00 PM 49.3407 -48.5950 250° West  Level FlightAware
Sun 09:26:00 PM 49.2952 -48.7855 250° West  Level FlightAware
Sun 09:27:00 PM 49.2494 -48.9757 250° West  Level FlightAware
Sun 09:28:00 PM 49.2033 -49.1656 250° West  Level FlightAware
Sun 09:29:00 PM 49.1568 -49.3550 250° West  Level FlightAware
Sun 09:30:00 PM 49.1101 -49.5442 249° West  Level FlightAware
Sun 09:31:00 PM 49.0630 -49.7329 249° West  Level FlightAware
Sun 09:32:00 PM 49.0157 -49.9213 249° West  Level FlightAware
Sun 09:33:00 PM 48.9744 -50.1119 251° West  Level FlightAware
Sun 09:34:00 PM 48.9307 -50.3020 251° West  Level FlightAware
Sun 09:35:00 PM 48.8866 -50.4918 251° West  Level FlightAware
Sun 09:36:00 PM 48.8422 -50.6812 250° West  Level FlightAware
Sun 09:37:00 PM 48.7975 -50.8703 250° West  Level FlightAware
Sun 09:38:00 PM 48.7530 -51.0593 251° West  Level FlightAware
Sun 09:38:25 PM 48.8920 -50.4890 251° West 482 555 32,500  Level FlightAware
Sun 09:39:00 PM 48.7093 -51.2486 251° West  Level FlightAware
Sun 09:39:05 PM 48.8620 -50.6220 251° West 480 552 33,200  Level FlightAware
Sun 09:39:35 PM 48.8420 -50.7130 252° West 479 551 33,700 640 Climbing FlightAware
Sun 09:40:20 PM 48.8090 -50.8600 251° West 475 547 34,000 200 Climbing FlightAware
Sun 09:41:05 PM 48.7760 -51.0050 251° West 475 547 34,000  Level FlightAware
Sun 09:41:45 PM 48.7470 -51.1310 251° West 476 548 34,000  Level FlightAware
Sun 09:42:25 PM 48.7170 -51.2580 250° West 479 551 34,000  Level FlightAware
Sun 09:43:11 PM 48.6830 -51.4030 250° West 478 550 34,000  Level FlightAware
Sun 09:43:51 PM 48.6520 -51.5340 250° West 477 549 34,000  Level FlightAware
Sun 09:44:36 PM 48.6200 -51.6720 251° West 474 545 34,000  Level FlightAware
Sun 09:45:16 PM 48.5890 -51.8000 250° West 475 547 34,000  Level FlightAware
Sun 09:45:58 PM 48.5590 -51.9240 250° West 476 548 34,000  Level FlightAware
Sun 09:46:31 PM 48.5330 -52.0360 251° West 476 548 34,000  Level FlightAware
Sun 09:47:17 PM 48.4980 -52.1780 250° West 476 548 34,000  Level FlightAware
Sun 09:47:58 PM 48.4670 -52.3060 250° West 475 547 34,000  Level FlightAware
Sun 09:48:32 PM 48.4400 -52.4150 250° West 473 544 34,000  Level FlightAware
Sun 09:49:13 PM 48.4100 -52.5410 250° West 474 545 34,000  Level FlightAware
Sun 09:49:57 PM 48.3750 -52.6790 249° West 472 543 34,000  Level FlightAware
Sun 09:50:48 PM 48.3370 -52.8340 250° West 467 537 34,000  Level FlightAware
Sun 09:51:23 PM 48.3090 -52.9460 249° West 464 534 34,000  Level FlightAware
Sun 09:52:08 PM 48.2760 -53.0780 249° West 463 533 34,000  Level FlightAware
Sun 09:52:54 PM 48.2400 -53.2160 249° West 464 534 34,000  Level FlightAware
Sun 09:53:33 PM 48.2100 -53.3360 249° West 466 536 34,000  Level FlightAware
Sun 09:54:18 PM 48.1750 -53.4730 249° West 467 537 34,000  Level FlightAware
Sun 09:54:53 PM 48.1470 -53.5810 249° West 470 541 34,000  Level FlightAware
Sun 09:55:33 PM 48.1150 -53.7030 249° West 472 543 34,000 75 Level FlightAware
Sun 09:56:13 PM 48.0820 -53.8310 249° West 474 545 34,100 75 Climbing FlightAware
Sun 09:56:53 PM 48.0510 -53.9490 249° West 477 549 34,100 -75 Level FlightAware
Sun 09:57:33 PM 48.0180 -54.0730 248° West 476 548 34,000 -80 Descending FlightAware
Sun 09:58:08 PM 47.9910 -54.1790 249° West 476 548 34,000  Level FlightAware
Sun 09:59:10 PM 47.9390 -54.3720 248° West 476 548 34,000  Level FlightAware
Sun 09:59:54 PM 47.9030 -54.5080 248° West 476 548 34,000  Level FlightAware
Sun 10:01:11 PM 47.8450 -54.7090 247° West 476 548 34,000  Level FlightAware
Sun 10:01:49 PM 47.8090 -54.8560 250° West 475 547 34,000  Level FlightAware
Sun 10:02:29 PM 47.7750 -54.9780 248° West 477 549 34,000  Level FlightAware
Sun 10:03:16 PM 47.7370 -55.1160 248° West 478 550 34,000  Level FlightAware
Sun 10:03:55 PM 47.7030 -55.2390 248° West 481 554 34,000  Level FlightAware
Sun 10:04:40 PM 47.6650 -55.3760 248° West 482 555 34,000  Level FlightAware
Sun 10:05:20 PM 47.6310 -55.4980 248° West 484 557 34,000  Level FlightAware
Sun 10:06:05 PM 47.5930 -55.6340 248° West 485 558 34,000  Level FlightAware
Sun 10:06:48 PM 47.5560 -55.7630 247° West 487 560 34,000  Level FlightAware
Sun 10:07:16 PM 47.5310 -55.8530 248° West 488 562 34,000  Level FlightAware
Sun 10:08:24 PM 47.4700 -56.0650 247° West 491 565 34,000  Level FlightAware
Sun 10:09:07 PM 47.4330 -56.1920 247° West 493 567 34,000  Level FlightAware
Sun 10:09:49 PM 47.3980 -56.3110 247° West 493 567 34,000  Level FlightAware
Sun 10:10:25 PM 47.3700 -56.4060 247° West 493 567 34,000  Level FlightAware
Sun 10:11:24 PM 47.3230 -56.5600 246° West 493 567 34,000  Level FlightAware
Sun 10:12:12 PM 47.2720 -56.7450 248° West 490 564 34,000  Level FlightAware
Sun 10:13:10 PM 47.2130 -56.9380 246° West 494 568 34,000  Level FlightAware
Sun 10:13:54 PM 47.1720 -57.0720 246° West 494 568 34,000  Level FlightAware
Sun 10:14:34 PM 47.1350 -57.1910 245° Southwest 494 568 34,000  Level FlightAware
Sun 10:15:18 PM 47.0940 -57.3250 246° West 495 570 34,000  Level FlightAware
Sun 10:16:00 PM 47.0580 -57.4380 245° Southwest 495 570 34,000  Level FlightAware
Sun 10:16:36 PM 47.0280 -57.5310 245° Southwest 495 570 34,000  Level FlightAware
Sun 10:17:18 PM 46.9790 -57.6880 245° Southwest 493 567 34,000  Level FlightAware
Sun 10:18:08 PM 46.9380 -57.8170 245° Southwest 493 567 34,000  Level FlightAware
Sun 10:18:45 PM 46.8960 -57.9490 245° Southwest 493 567 34,000  Level FlightAware
Sun 10:19:29 PM 46.8540 -58.0800 245° Southwest 493 567 34,000  Level FlightAware
Sun 10:20:12 PM 46.8120 -58.2080 244° Southwest 495 570 34,000  Level FlightAware
Sun 10:20:49 PM 46.7760 -58.3220 245° Southwest 497 572 34,000  Level FlightAware
Sun 10:21:29 PM 46.7370 -58.4420 245° Southwest 498 573 34,000  Level FlightAware
Sun 10:22:13 PM 46.6950 -58.5700 244° Southwest 500 575 34,000  Level FlightAware
Sun 10:22:53 PM 46.6540 -58.6920 244° Southwest 502 578 34,000  Level FlightAware
Sun 10:23:33 PM 46.6140 -58.8130 244° Southwest 502 578 34,000  Level FlightAware
Sun 10:24:13 PM 46.5740 -58.9350 245° Southwest 501 577 34,000  Level FlightAware
Sun 10:24:47 PM 46.5400 -59.0360 244° Southwest 500 575 34,000  Level FlightAware
Sun 10:25:27 PM 46.5000 -59.1560 244° Southwest 500 575 34,000  Level FlightAware
Sun 10:26:11 PM 46.4560 -59.2860 244° Southwest 500 575 34,000  Level FlightAware
Sun 10:26:52 PM 46.4160 -59.4060 244° Southwest 501 577 34,000  Level FlightAware
Sun 10:27:35 PM 46.3710 -59.5360 243° Southwest 501 577 34,000  Level FlightAware
Sun 10:28:15 PM 46.3310 -59.6540 244° Southwest 501 577 34,000  Level FlightAware
Sun 10:28:59 PM 46.2860 -59.7840 243° Southwest 502 578 34,000  Level FlightAware
Sun 10:29:39 PM 46.2450 -59.9050 244° Southwest 503 579 34,000  Level FlightAware
Sun 10:30:29 PM 46.1970 -60.0430 243° Southwest 504 580 34,000  Level FlightAware
Sun 10:31:13 PM 46.1480 -60.1830 243° Southwest 505 581 34,000  Level FlightAware
Sun 10:31:57 PM 46.1020 -60.3140 243° Southwest 505 581 34,000 75 Level FlightAware
Sun 10:32:33 PM 46.0650 -60.4190 243° Southwest 506 582 34,100  Climbing FlightAware
Sun 10:33:13 PM 46.0220 -60.5410 243° Southwest 505 581 34,000 -88 Descending FlightAware
Sun 10:33:41 PM 45.9930 -60.6240 243° Southwest 506 582 34,000  Level FlightAware
Sun 10:34:19 PM 45.9530 -60.7370 243° Southwest 506 582 34,000  Level FlightAware
Sun 10:35:07 PM 45.9020 -60.8780 243° Southwest 507 583 34,000  Level FlightAware
Sun 10:35:47 PM 45.8600 -60.9950 243° Southwest 506 582 34,000  Level FlightAware
Sun 10:36:27 PM 45.8170 -61.1140 243° Southwest 506 582 34,000  Level FlightAware
Sun 10:37:11 PM 45.7700 -61.2440 243° Southwest 504 580 34,000  Level FlightAware
Sun 10:37:54 PM 45.7280 -61.3570 242° Southwest 503 579 34,000  Level FlightAware
Sun 10:38:31 PM 45.6940 -61.4490 242° Southwest 503 579 34,000  Level FlightAware
Sun 10:39:19 PM 45.6500 -61.5690 242° Southwest 503 579 34,000  Level FlightAware
Sun 10:39:55 PM 45.6160 -61.6590 242° Southwest 503 579 34,000  Level FlightAware
Sun 10:40:44 PM 45.5710 -61.7810 242° Southwest 503 579 34,000  Level FlightAware
Sun 10:41:21 PM 45.5360 -61.8740 242° Southwest 503 579 34,000  Level FlightAware
Sun 10:41:45 PM 45.5140 -61.9340 242° Southwest 503 579 34,000  Level FlightAware
Sun 10:42:36 PM 45.4670 -62.0610 242° Southwest 503 579 34,000  Level FlightAware
Sun 10:43:13 PM 45.4320 -62.1530 242° Southwest 503 579 34,000  Level FlightAware
Sun 10:44:14 PM 45.3750 -62.3040 242° Southwest 503 579 34,000  Level FlightAware
Sun 10:44:51 PM 45.3410 -62.3960 242° Southwest 503 579 34,000  Level FlightAware
Sun 10:45:25 PM 45.3100 -62.4810 243° Southwest 503 579 34,000  Level FlightAware
Sun 10:46:02 PM 45.2750 -62.5730 242° Southwest 503 579 34,000  Level FlightAware
Sun 10:46:38 PM 45.2420 -62.6620 242° Southwest 503 579 34,000  Level FlightAware
Sun 10:47:26 PM 45.1970 -62.7810 242° Southwest 503 579 34,000  Level FlightAware
Sun 10:49:53 PM 44.9420 -63.4320 241° Southwest 34,000  Level FlightAware
Sun 10:50:33 PM 44.9000 -63.5400 241° Southwest 499 574 34,000  Level FlightAware
Sun 10:51:18 PM 44.8470 -63.6730 241° Southwest 499 574 34,000  Level FlightAware
Sun 10:51:58 PM 44.8030 -63.7850 241° Southwest 497 572 34,000  Level FlightAware
Sun 10:52:43 PM 44.7520 -63.9120 241° Southwest 497 572 34,000  Level FlightAware
Sun 10:53:18 PM 44.7170 -63.9990 241° Southwest 498 573 34,000  Level FlightAware
Sun 10:54:00 PM 44.6640 -64.1320 241° Southwest 496 571 34,000  Level FlightAware
Sun 10:54:44 PM 44.6140 -64.2540 240° Southwest 497 572 34,000  Level FlightAware
Sun 10:55:20 PM 44.5720 -64.3570 240° Southwest 497 572 34,000  Level FlightAware
Sun 10:56:00 PM 44.5280 -64.4640 240° Southwest 498 573 34,000  Level FlightAware
Sun 10:56:40 PM 44.4810 -64.5800 240° Southwest 498 573 34,000  Level FlightAware
Sun 10:57:20 PM 44.4340 -64.6930 240° Southwest 501 577 34,000  Level FlightAware
Sun 10:58:04 PM 44.3840 -64.8160 240° Southwest 502 578 34,000 68 Level FlightAware
Sun 10:58:48 PM 44.3320 -64.9400 240° Southwest 503 579 34,100 71 Climbing FlightAware
Sun 10:59:28 PM 44.2850 -65.0540 240° Southwest 504 580 34,100 -75 Level FlightAware
Sun 11:00:08 PM 44.2380 -65.1670 240° Southwest 502 578 34,000 -79 Descending FlightAware
Sun 11:00:44 PM 44.1960 -65.2670 240° Southwest 502 578 34,000  Level FlightAware
Sun 11:01:26 PM 44.1490 -65.3770 239° Southwest 501 577 34,000  Level FlightAware
Sun 11:02:08 PM 44.0970 -65.5000 240° Southwest 496 571 34,000  Level FlightAware
Sun 11:02:44 PM 44.0570 -65.5950 240° Southwest 501 577 34,000  Level FlightAware
Sun 11:03:28 PM 44.0030 -65.7240 240° Southwest 502 578 34,000  Level FlightAware
Sun 11:04:08 PM 43.9550 -65.8340 239° Southwest 503 579 34,000  Level FlightAware
Sun 11:04:38 PM 43.9190 -65.9190 240° Southwest 503 579 34,000  Level FlightAware
Sun 11:05:23 PM 43.8650 -66.0440 239° Southwest 504 580 34,000  Level FlightAware
Sun 11:06:08 PM 43.8110 -66.1690 239° Southwest 504 580 34,000  Level FlightAware
Sun 11:06:48 PM 43.7620 -66.2810 239° Southwest 505 581 34,000  Level FlightAware
Sun 11:07:29 PM 43.7140 -66.3920 239° Southwest 505 581 34,000  Level FlightAware
Sun 11:08:13 PM 43.6590 -66.5160 239° Southwest 503 579 34,000  Level FlightAware
Sun 11:08:54 PM 43.6100 -66.6280 239° Southwest 502 578 34,000  Level FlightAware
Sun 11:09:28 PM 43.5690 -66.7230 239° Southwest 498 573 34,000  Level FlightAware
Sun 11:10:13 PM 43.5140 -66.8460 238° Southwest 497 572 34,000  Level FlightAware
Sun 11:10:53 PM 43.4640 -66.9570 238° Southwest 497 572 34,000  Level FlightAware
Sun 11:11:33 PM 43.4160 -67.0650 239° Southwest 496 571 34,000  Level FlightAware
Sun 11:12:19 PM 43.3610 -67.1890 239° Southwest 496 571 34,000  Level FlightAware
Sun 11:13:03 PM 43.3060 -67.3110 238° Southwest 498 573 34,000  Level FlightAware
Sun 11:13:39 PM 43.2620 -67.4070 238° Southwest 498 573 34,000  Level FlightAware
Sun 11:14:23 PM 43.2070 -67.5290 238° Southwest 498 573 34,000  Level FlightAware
Sun 11:14:59 PM 43.1690 -67.6140 239° Southwest 499 574 34,000  Level FlightAware
Sun 11:15:39 PM 43.1130 -67.7360 238° Southwest 499 574 34,000  Level FlightAware
Sun 11:16:19 PM 43.0640 -67.8430 238° Southwest 505 581 34,000  Level FlightAware
Sun 11:16:59 PM 43.0180 -67.9420 238° Southwest 505 581 34,000  Level FlightAware
Sun 11:17:33 PM 42.9770 -68.0280 237° Southwest 505 581 34,000  Level FlightAware
Sun 11:18:21 PM 42.9250 -68.1380 237° Southwest 505 581 34,000  Level FlightAware
Sun 11:18:57 PM 42.8860 -68.2190 237° Southwest 505 581 34,000  Level FlightAware
Sun 11:19:33 PM 42.8480 -68.3010 238° Southwest 505 581 34,000  Level FlightAware
Sun 11:20:21 PM 42.7960 -68.4100 237° Southwest 505 581 34,000  Level FlightAware
Sun 11:20:59 PM 42.7540 -68.4960 236° Southwest 505 581 34,000  Level FlightAware
Sun 11:21:46 PM 42.6540 -68.7220 239° Southwest 506 582 34,000  Level FlightAware
Sun 11:22:31 PM 42.6030 -68.8290 237° Southwest 506 582 34,000  Level FlightAware
Sun 11:23:06 PM 42.5550 -68.9350 238° Southwest 507 583 34,000  Level FlightAware
Sun 11:23:41 PM 42.5170 -69.0260 240° Southwest 507 583 34,000  Level FlightAware
Sun 11:24:27 PM 42.4610 -69.1530 239° Southwest 508 585 34,000  Level FlightAware
Sun 11:25:10 PM 42.4060 -69.2820 240° Southwest 509 586 34,000  Level FlightAware
Sun 11:25:50 PM 42.3590 -69.3890 239° Southwest 510 587 34,000  Level FlightAware
Sun 11:26:30 PM 42.3110 -69.5010 240° Southwest 510 587 34,000  Level FlightAware
Sun 11:27:15 PM 42.2560 -69.6260 239° Southwest 507 583 34,000  Level FlightAware
Sun 11:27:55 PM 42.2080 -69.7340 239° Southwest 506 582 34,000  Level FlightAware
Sun 11:28:40 PM 42.1530 -69.8580 239° Southwest 504 580 34,000  Level FlightAware
Sun 11:29:20 PM 42.1050 -69.9650 239° Southwest 507 583 34,000  Level FlightAware
Sun 11:30:00 PM 42.0580 -70.0710 239° Southwest 502 578 34,000  Level FlightAware
Sun 11:30:38 PM 42.0140 -70.1690 239° Southwest 505 581 34,000  Level FlightAware
Sun 11:31:26 PM 41.9550 -70.3010 239° Southwest 503 579 34,000  Level FlightAware
Sun 11:32:05 PM 41.9110 -70.3990 239° Southwest 503 579 34,000  Level FlightAware
Sun 11:32:45 PM 41.8630 -70.5040 238° Southwest 504 580 34,000  Level FlightAware
Sun 11:33:26 PM 41.8140 -70.6120 239° Southwest 505 581 34,000 71 Level FlightAware
Sun 11:34:10 PM 41.7550 -70.7400 238° Southwest 506 582 34,100  Climbing FlightAware
Sun 11:35:01 PM 41.6930 -70.8790 239° Southwest 507 583 34,000 -63 Descending FlightAware
Sun 11:35:46 PM 41.6450 -71.0030 243° Southwest 503 579 34,000  Level FlightAware
Sun 11:36:31 PM 41.5970 -71.1260 242° Southwest 502 578 34,000  Level FlightAware
Sun 11:37:11 PM 41.5540 -71.2370 243° Southwest 503 579 34,000  Level FlightAware
Sun 11:37:46 PM 41.5170 -71.3310 242° Southwest 502 578 34,000  Level FlightAware
Sun 11:38:26 PM 41.4730 -71.4420 242° Southwest 503 579 34,000  Level FlightAware
Sun 11:39:11 PM 41.4240 -71.5660 242° Southwest 503 579 34,000  Level FlightAware
Sun 11:39:46 PM 41.3860 -71.6630 242° Southwest 502 578 34,000  Level FlightAware
Sun 11:40:29 PM 41.3510 -71.7550 243° Southwest 502 578 34,000  Level FlightAware
Sun 11:41:37 PM 41.2770 -71.9390 242° Southwest 504 580 34,000  Level FlightAware
Sun 11:41:47 PM 41.2518 -71.9972 240° Southwest 510 587 34,000  Level FlightAware
Sun 11:42:19 PM 41.2180 -72.0810 242° Southwest 510 587 34,000  Level FlightAware
Sun 11:42:59 PM 41.1750 -72.1870 242° Southwest 511 588 34,000  Level FlightAware
Sun 11:43:11 PM 41.1584 -72.2284 242° Southwest 512 589 34,000  Level FlightAware
Sun 11:43:42 PM 41.1237 -72.3130 241° Southwest 512 589 34,000  Level FlightAware
Sun 11:44:13 PM 41.0901 -72.3955 242° Southwest 512 589 34,000  Level FlightAware
Sun 11:44:44 PM 41.0545 -72.4822 241° Southwest 511 588 34,000  Level FlightAware
Sun 11:45:15 PM 41.0200 -72.5657 241° Southwest 509 586 34,000  Level FlightAware
Sun 11:45:46 PM 40.9860 -72.6487 242° Southwest 509 586 34,000  Level FlightAware
Sun 11:46:17 PM 40.9521 -72.7321 242° Southwest 508 585 34,000  Level FlightAware
Sun 11:46:47 PM 40.9184 -72.8141 241° Southwest 507 583 34,000  Level FlightAware
Sun 11:47:18 PM 40.8837 -72.8962 241° Southwest 508 585 34,000  Level FlightAware
Sun 11:47:49 PM 40.8490 -72.9798 241° Southwest 509 586 34,000  Level FlightAware
Sun 11:48:20 PM 40.8142 -73.0634 241° Southwest 510 587 34,000  Level FlightAware
Sun 11:48:43 PM 40.7883 -73.1260 241° Southwest 509 586 34,000  Level FlightAware
Sun 11:48:53 PM 40.7783 -73.1539 245° Southwest 511 588 34,000  Level FlightAware
Sun 11:49:23 PM 40.7562 -73.2430 252° West 512 589 34,000  Level FlightAware
Sun 11:49:54 PM 40.7342 -73.3329 252° West 513 590 34,000 98 Level FlightAware
Sun 11:50:24 PM 40.7126 -73.4211 252° West 513 590 34,100 100 Climbing FlightAware
Sun 11:50:54 PM 40.6906 -73.5097 252° West 511 588 34,100 -98 Level FlightAware
Sun 11:51:25 PM 40.6686 -73.5990 252° West 508 585 34,000 -98 Descending FlightAware
Sun 11:51:55 PM 40.6465 -73.6876 252° West 504 580 34,000  Level FlightAware
Sun 11:52:25 PM 40.6250 -73.7746 252° West 503 579 34,000  Level FlightAware
Sun 11:52:56 PM 40.6032 -73.8606 252° West 501 577 34,000  Level FlightAware
Sun 11:53:28 PM 40.5801 -73.9538 252° West 501 577 34,000  Level FlightAware
Sun 11:53:58 PM 40.5581 -74.0410 252° West 504 580 34,000  Level FlightAware
Sun 11:54:28 PM 40.5361 -74.1274 252° West 506 582 34,000  Level FlightAware
Sun 11:55:02 PM 40.5114 -74.2250 252° West 507 583 34,000  Level FlightAware
Sun 11:55:33 PM 40.4887 -74.3141 252° West 509 586 34,000  Level FlightAware
Sun 11:56:03 PM 40.4664 -74.4012 251° West 510 587 34,000 98 Level FlightAware
Sun 11:56:34 PM 40.4433 -74.4910 251° West 512 589 34,100  Climbing FlightAware
Sun 11:57:05 PM 40.4202 -74.5809 251° West 513 590 34,000 -92 Descending FlightAware
Sun 11:57:39 PM 40.3947 -74.6801 251° West 512 589 34,000  Level FlightAware
Sun 11:58:10 PM 40.3710 -74.7716 251° West 509 586 34,000  Level FlightAware
Sun 11:58:43 PM 40.3462 -74.8658 251° West 508 585 34,000 -92 Level FlightAware
Sun 11:59:15 PM 40.3222 -74.9575 251° West 508 585 33,900  Descending FlightAware
Sun 11:59:45 PM 40.2994 -75.0447 251° West 510 587 34,000 100 Climbing FlightAware
Mon 12:00:15 AM 40.2761 -75.1329 251° West 515 593 34,000  Level FlightAware
Mon 12:00:32 AM 40.2618 -75.1822 249° West 518 596 34,000  Level FlightAware
Mon 12:00:41 AM 40.2523 -75.2059 242° Southwest 520 598 34,000  Level FlightAware
Mon 12:00:52 AM 40.2374 -75.2349 236° Southwest 521 600 34,000 146 Level FlightAware
Mon 12:01:22 AM 40.1923 -75.3089 231° Southwest 523 602 34,100 97 Climbing FlightAware
Mon 12:01:54 AM 40.1456 -75.3868 232° Southwest 525 604 34,100 -97 Level FlightAware
Mon 12:02:24 AM 40.1006 -75.4610 232° Southwest 524 603 34,000 -100 Descending FlightAware
Mon 12:02:54 AM 40.0550 -75.5356 231° Southwest 523 602 34,000  Level FlightAware
Mon 12:03:24 AM 40.0096 -75.6102 232° Southwest 521 600 34,000  Level FlightAware
Mon 12:03:55 AM 39.9641 -75.6845 231° Southwest 521 600 34,000  Level FlightAware
Mon 12:04:25 AM 39.9185 -75.7592 231° Southwest 520 598 34,000  Level FlightAware
Mon 12:04:56 AM 39.8726 -75.8335 231° Southwest 519 597 34,000  Level FlightAware
Mon 12:05:27 AM 39.8258 -75.9095 231° Southwest 519 597 34,000  Level FlightAware
Mon 12:05:58 AM 39.7803 -75.9830 231° Southwest 518 596 34,000  Level FlightAware
Mon 12:06:28 AM 39.7350 -76.0560 231° Southwest 519 597 34,000  Level FlightAware
Mon 12:06:59 AM 39.6881 -76.1313 231° Southwest 519 597 34,000  Level FlightAware
Mon 12:07:30 AM 39.6417 -76.2056 231° Southwest 518 596 34,000  Level FlightAware
Mon 12:08:01 AM 39.5959 -76.2788 231° Southwest 519 597 34,000  Level FlightAware
Mon 12:08:31 AM 39.5496 -76.3530 231° Southwest 518 596 34,000  Level FlightAware
Mon 12:09:01 AM 39.5046 -76.4250 231° Southwest 518 596 34,000  Level FlightAware
Mon 12:09:31 AM 39.4595 -76.4973 231° Southwest 518 596 34,000  Level FlightAware
Mon 12:10:01 AM 39.4136 -76.5694 231° Southwest 517 595 34,000  Level FlightAware
Mon 12:10:32 AM 39.3680 -76.6417 231° Southwest 518 596 34,000  Level FlightAware
Mon 12:11:02 AM 39.3223 -76.7139 231° Southwest 518 596 34,000  Level FlightAware
Mon 12:11:32 AM 39.2766 -76.7860 231° Southwest 516 594 34,000  Level FlightAware
Mon 12:12:03 AM 39.2305 -76.8588 231° Southwest 515 593 34,000  Level FlightAware
Mon 12:12:33 AM 39.1846 -76.9311 231° Southwest 515 593 34,000  Level FlightAware
Mon 12:13:03 AM 39.1390 -77.0025 231° Southwest 515 593 34,000  Level FlightAware
Mon 12:13:33 AM 39.0933 -77.0737 230° Southwest 513 590 34,000  Level FlightAware
Mon 12:14:04 AM 39.0473 -77.1453 230° Southwest 513 590 34,000  Level FlightAware
Mon 12:14:34 AM 39.0015 -77.2167 230° Southwest 512 589 34,000  Level FlightAware
Mon 12:15:04 AM 38.9560 -77.2876 230° Southwest 512 589 34,000  Level FlightAware
Mon 12:15:35 AM 38.9106 -77.3578 230° Southwest 510 587 34,000  Level FlightAware
Mon 12:16:05 AM 38.8650 -77.4282 230° Southwest 510 587 34,000  Level FlightAware
Mon 12:16:35 AM 38.8185 -77.5000 230° Southwest 511 588 34,000  Level FlightAware
Mon 12:17:06 AM 38.7726 -77.5702 230° Southwest 510 587 34,000  Level FlightAware
Mon 12:17:36 AM 38.7275 -77.6395 230° Southwest 511 588 34,000  Level FlightAware
Mon 12:18:14 AM 38.6694 -77.7285 230° Southwest 512 589 34,000  Level FlightAware
Mon 12:18:46 AM 38.6197 -77.8041 230° Southwest 511 588 34,000  Level FlightAware
Mon 12:19:17 AM 38.5739 -77.8742 230° Southwest 511 588 34,000  Level FlightAware
Mon 12:20:13 AM 38.4870 -78.0060 230° Southwest 513 590 34,000  Level FlightAware
Mon 12:20:21 AM 38.4748 -78.0246 230° Southwest 513 590 34,000  Level FlightAware
Mon 12:20:52 AM 38.4285 -78.0946 230° Southwest 512 589 34,000  Level FlightAware
Mon 12:21:33 AM 38.3640 -78.1910 230° Southwest 510 587 34,000  Level FlightAware
Mon 12:21:48 AM 38.3420 -78.2247 230° Southwest 509 586 34,000  Level FlightAware
Mon 12:22:19 AM 38.2946 -78.2965 230° Southwest 508 585 34,000  Level FlightAware
Mon 12:22:57 AM 38.2380 -78.3820 230° Southwest 506 582 34,000  Level FlightAware
Mon 12:23:37 AM 38.1770 -78.4720 229° Southwest 505 581 34,000  Level FlightAware
Mon 12:24:21 AM 38.1100 -78.5720 230° Southwest 504 580 34,000  Level FlightAware
Mon 12:25:01 AM 38.0490 -78.6630 230° Southwest 504 580 34,000  Level FlightAware
Mon 12:25:45 AM 37.9810 -78.7630 229° Southwest 507 583 34,000  Level FlightAware
Mon 12:26:21 AM 37.9270 -78.8440 230° Southwest 510 587 34,000 79 Level FlightAware
Mon 12:27:01 AM 37.8650 -78.9360 230° Southwest 512 589 34,100  Climbing FlightAware
Mon 12:27:41 AM 37.8020 -79.0280 229° Southwest 511 588 34,000 -75 Descending FlightAware
Mon 12:28:21 AM 37.7400 -79.1190 229° Southwest 507 583 34,000  Level FlightAware
Mon 12:29:01 AM 37.6800 -79.2070 229° Southwest 505 581 34,000  Level FlightAware
Mon 12:29:41 AM 37.6170 -79.2980 229° Southwest 503 579 34,000  Level FlightAware
Mon 12:30:21 AM 37.5560 -79.3880 229° Southwest 502 578 34,000  Level FlightAware
Mon 12:31:05 AM 37.4900 -79.4830 229° Southwest 506 582 34,000  Level FlightAware
Mon 12:31:45 AM 37.4260 -79.5740 228° Southwest 507 583 34,000 71 Level FlightAware
Mon 12:32:29 AM 37.3570 -79.6740 229° Southwest 510 587 34,100 76 Climbing FlightAware
Mon 12:33:04 AM 37.3110 -79.7400 229° Southwest 510 587 34,100 -73 Level FlightAware
Mon 12:33:51 AM 37.2300 -79.8570 229° Southwest 511 588 34,000 -66 Descending FlightAware
Mon 12:34:35 AM 37.1600 -79.9560 228° Southwest 512 589 34,000  Level FlightAware
Mon 12:35:30 AM 37.0860 -80.0610 229° Southwest 512 589 34,000  Level FlightAware
Mon 12:36:38 AM 36.9750 -80.2200 229° Southwest 510 587 34,000  Level FlightAware
Mon 12:37:15 AM 36.9250 -80.2890 228° Southwest 510 587 34,000  Level FlightAware
Mon 12:38:03 AM 36.8390 -80.4120 229° Southwest 507 583 34,000  Level FlightAware
Mon 12:38:43 AM 36.7850 -80.4860 228° Southwest 507 583 34,000  Level FlightAware
Mon 12:39:32 AM 36.7200 -80.5770 228° Southwest 507 583 34,000  Level FlightAware
Mon 12:40:08 AM 36.6720 -80.6440 228° Southwest 507 583 34,000  Level FlightAware
Mon 12:40:44 AM 36.6240 -80.7100 228° Southwest 507 583 34,000  Level FlightAware
Mon 12:41:21 AM 36.5750 -80.7780 228° Southwest 507 583 34,000  Level FlightAware
Mon 12:42:09 AM 36.4464 -80.9595 229° Southwest 517 595 34,000  Level FlightAware
Mon 12:42:43 AM 36.3920 -81.0347 228° Southwest 518 596 34,000 94 Level FlightAware
Mon 12:43:13 AM 36.3424 -81.1030 228° Southwest 519 597 34,100 87 Climbing FlightAware
Mon 12:43:52 AM 36.2808 -81.1881 228° Southwest 519 597 34,100 -31 Level FlightAware
Mon 12:46:27 AM 36.0340 -81.5260 228° Southwest 511 588 34,000 -33 Descending FlightAware
Mon 12:46:56 AM 35.9876 -81.5884 227° Southwest 514 592 34,000  Level FlightAware
Mon 12:47:26 AM 35.9388 -81.6537 227° Southwest 515 593 34,000  Level FlightAware
Mon 12:47:57 AM 35.8884 -81.7220 228° Southwest 517 595 34,000 98 Level FlightAware
Mon 12:48:27 AM 35.8396 -81.7884 228° Southwest 517 595 34,100 91 Climbing FlightAware
Mon 12:49:03 AM 35.7830 -81.8651 228° Southwest 517 595 34,100 -83 Level FlightAware
Mon 12:49:39 AM 35.7247 -81.9437 228° Southwest 517 595 34,000 -91 Descending FlightAware
Mon 12:50:09 AM 35.6743 -82.0067 225° Southwest 518 596 34,000  Level FlightAware
Mon 12:50:41 AM 35.6199 -82.0722 224° Southwest 517 595 34,000  Level FlightAware
Mon 12:51:11 AM 35.5686 -82.1352 225° Southwest 517 595 34,000  Level FlightAware
Mon 12:51:42 AM 35.5167 -82.1985 225° Southwest 517 595 34,000  Level FlightAware
Mon 12:52:12 AM 35.4656 -82.2617 225° Southwest 516 594 34,000  Level FlightAware
Mon 12:52:44 AM 35.4127 -82.3260 225° Southwest 515 593 34,000  Level FlightAware
Mon 12:53:15 AM 35.3608 -82.3896 225° Southwest 516 594 34,000  Level FlightAware
Mon 12:53:48 AM 35.3054 -82.4574 225° Southwest 515 593 34,000  Level FlightAware
Mon 12:54:19 AM 35.2534 -82.5209 225° Southwest 515 593 34,000  Level FlightAware
Mon 12:54:50 AM 35.2009 -82.5846 225° Southwest 513 590 34,000  Level FlightAware
Mon 12:55:27 AM 35.1380 -82.6606 225° Southwest 511 588 34,000  Level FlightAware
Mon 12:55:59 AM 35.0857 -82.7240 225° Southwest 508 585 34,000 -476 Level FlightAware
Mon 12:56:30 AM 35.0350 -82.7849 225° Southwest 493 567 33,500 -984 Descending FlightAware
Mon 12:57:00 AM 34.9865 -82.8438 225° Southwest 489 563 33,000 -1,161 Descending FlightAware
Mon 12:57:32 AM 34.9357 -82.9042 224° Southwest 489 563 32,300 -1,355 Descending FlightAware
Mon 12:58:02 AM 34.8871 -82.9622 224° Southwest 487 560 31,600 -1,700 Descending FlightAware
Mon 12:58:32 AM 34.8393 -83.0194 224° Southwest 478 550 30,600 -2,000 Descending FlightAware
Mon 12:59:02 AM 34.7918 -83.0764 225° Southwest 471 542 29,600 -2,066 Descending FlightAware
Mon 12:59:33 AM 34.7456 -83.1319 225° Southwest 465 535 28,500 -2,226 Descending FlightAware
Mon 01:00:04 AM 34.6976 -83.1886 224° Southwest 460 529 27,300 -2,066 Descending FlightAware
Mon 01:00:34 AM 34.6519 -83.2419 224° Southwest 452 520 26,400 -1,770 Descending FlightAware
Mon 01:01:05 AM 34.6071 -83.2962 225° Southwest 443 510 25,500 -1,791 Descending FlightAware
Mon 01:01:41 AM 34.5565 -83.3570 225° Southwest 433 498 24,400 -1,895 Descending FlightAware
Mon 01:02:21 AM 34.4991 -83.4242 224° Southwest 431 496 23,100 -1,800 Descending FlightAware
Mon 01:02:51 AM 34.4571 -83.4729 224° Southwest 418 481 22,300 -1,700 Descending FlightAware
Mon 01:03:21 AM 34.4159 -83.5218 224° Southwest 409 471 21,400 -1,735 Descending FlightAware
Mon 01:04:14 AM 34.3464 -83.6039 224° Southwest 396 456 19,900 -1,733 Descending FlightAware
Mon 01:04:51 AM 34.2989 -83.6599 224° Southwest 393 452 18,800 -1,723 Descending FlightAware
Mon 01:05:48 AM 34.2280 -83.7420 224° Southwest 376 433 17,200 -1,670 Descending FlightAware
Mon 01:06:28 AM 34.1780 -83.8020 225° Southwest 368 423 16,100 -1,390 Descending FlightAware
Mon 01:07:10 AM 34.1280 -83.8600 224° Southwest 365 420 15,300 -1,385 Descending FlightAware
Mon 01:07:46 AM 34.0940 -83.9200 236° Southwest 363 418 14,300 -1,500 Descending FlightAware
Mon 01:08:26 AM 34.0600 -83.9880 239° Southwest 348 400 13,400 -1,571 Descending FlightAware
Mon 01:09:10 AM 34.0240 -84.0590 239° Southwest 347 399 12,100 -1,500 Descending FlightAware
Mon 01:09:50 AM 33.9920 -84.1240 239° Southwest 339 390 11,300 -1,000 Descending FlightAware
Mon 01:10:34 AM 33.9590 -84.1930 240° Southwest 312 359 10,700 -563 Descending FlightAware
Mon 01:10:54 AM 33.9450 -84.2230 241° Southwest 306 352 10,700 -844 Level FlightAware
Mon 01:11:38 AM 33.9140 -84.2860 239° Southwest 303 349 9,800 -1,250 Descending FlightAware
Mon 01:12:06 AM 33.8950 -84.3280 241° Southwest 298 343 9,200 -1,286 Descending FlightAware
Mon 01:12:34 AM 33.8780 -84.3670 242° Southwest 292 336 8,600 -1,393 Descending FlightAware
Mon 01:13:02 AM 33.8600 -84.4060 241° Southwest 289 333 7,900 -1,571 Descending FlightAware
Mon 01:13:16 AM 33.8510 -84.4260 242° Southwest 292 336 7,500 -1,571 Descending FlightAware
Mon 01:13:44 AM 33.8340 -84.4650 242° Southwest 290 334 6,800 -1,364 Descending FlightAware
Mon 01:14:00 AM 33.8240 -84.4870 241° Southwest 288 331 6,500 -1,364 Descending FlightAware
Mon 01:14:28 AM 33.8060 -84.5270 242° Southwest 284 327 5,800 -1,350 Descending FlightAware
Mon 01:14:40 AM 33.7990 -84.5430 242° Southwest 284 327 5,600 -900 Descending FlightAware
Mon 01:15:08 AM 33.7830 -84.5800 243° Southwest 270 311 5,200 -960 Descending FlightAware
Mon 01:15:30 AM 33.7710 -84.6090 244° Southwest 267 307 4,800 -1,385 Descending FlightAware
Mon 01:16:00 AM 33.7530 -84.6480 241° Southwest 264 304 4,000 -1,571 Descending FlightAware
Mon 01:16:12 AM 33.7450 -84.6620 236° Southwest 254 292 3,700 -1,250 Descending FlightAware
Mon 01:16:24 AM 33.7330 -84.6710 212° Southwest 234 269 3,500 -857 Descending FlightAware
Mon 01:16:40 AM 33.7180 -84.6730 186° South 219 252 3,300 -938 Descending FlightAware
Mon 01:16:56 AM 33.7020 -84.6730 180° South 213 245 3,000 -900 Descending FlightAware
Mon 01:17:20 AM 33.6790 -84.6740 182° South 199 229 2,700 -474 Descending FlightAware
Mon 01:17:34 AM 33.6660 -84.6750 184° South 187 215 2,700  Level FlightAware
Mon 01:18:04 AM 33.6490 -84.6580 140° Southeast 169 194 2,700  Level FlightAware
Mon 01:18:32 AM 33.6430 -84.6310 105° East 172 198 2,700  Level FlightAware
Mon 01:18:44 AM 33.6400 -84.6190 107° East 171 197 2,700  Level FlightAware
Mon 01:19:13 AM 33.6350 -84.5930 103° East 170 196 2,700  Level FlightAware
Mon 01:19:28 AM 33.6350 -84.5780 90° East 165 190 2,700 -324 Level FlightAware
Mon 01:19:50 AM 33.6350 -84.5580 90° East 151 174 2,500 -577 Descending FlightAware
Mon 01:20:20 AM 33.6350 -84.5330 90° East 149 171 2,200 -778 Descending FlightAware
Mon 01:20:44 AM 33.6350 -84.5140 90° East 141 162 1,800 -840 Descending FlightAware
Mon 01:21:10 AM 33.6350 -84.4920 90° East 147 169 1,500 -818 Descending FlightAware
Mon 01:21:28 AM 33.6350 -84.4760 90° East 152 175 1,200 -783 Descending FlightAware
Mon 01:21:56 AM 33.6350 -84.4520 90° East 154 177 900 -643 Descending FlightAware
Mon 01:22:34 AM 33.6350 -84.4250 90° East 57 66 -1,421 Descending FlightAware
Mon 01:22:50 AM 33.6350 -84.4220 90° East 32 37  Level FlightAware
Mon 01:23:05 AM 33.6340 -84.4220 180° South 18 21  Level FlightAware
Mon 01:23:43 AM 33.6340 -84.4220 180° South 26 30  Level FlightAware
Mon 01:24:01 AM 33.6340 -84.4230 270° West 28 32  Level FlightAware
Mon 01:24:13 AM 33.6330 -84.4230 180° South 29 33  Level FlightAware
Mon 01:24:29 AM 33.6330 -84.4240 270° West 33 38  Level FlightAware
Mon 01:24:57 AM 33.6320 -84.4250 220° Southwest 30 35  Level FlightAware
Mon 01:25:07 AM 33.6320 -84.4260 270° West 22 25  Level FlightAware
Mon 01:26:14 AM 33.6300 -84.4270 203° Southwest 34 39  Level FlightAware
Mon 01:26:53 AM 33.6290 -84.4290 239° Southwest 26 30  Level FlightAware
Mon 01:27:07 AM 33.6280 -84.4290 180° South 30 35  Level FlightAware
Mon 01:27:45 AM 33.6260 -84.4290 180° South 15 17  Level FlightAware
Mon 01:30:00 AM 33.6333 -84.4167 95° East  Level FlightAware

Login

Don't have an account? Register now (free) for customized features, flight alerts, and more!